createdAt,value
2022-07-30T00:00:54.263Z,94989.97
2022-07-30T00:03:21.966Z,94978.97
2022-07-30T00:05:49.904Z,94982.25
2022-07-30T00:08:17.513Z,94985.81
2022-07-30T00:10:45.166Z,94976.22
2022-07-30T00:13:14.935Z,94980.88
2022-07-30T00:15:42.817Z,94974.38
2022-07-30T00:18:10.441Z,94971.66
2022-07-30T00:20:43.553Z,94978.50
2022-07-30T00:23:11.989Z,94979.63
2022-07-30T00:25:39.598Z,94973.28
2022-07-30T00:28:07.209Z,94971.41
2022-07-30T00:30:36.236Z,94970.84
2022-07-30T00:33:03.931Z,94977.22
2022-07-30T00:35:31.538Z,94965.44
2022-07-30T00:37:59.225Z,94972.34
2022-07-30T00:40:27.072Z,94975.13
2022-07-30T00:42:54.652Z,94976.50
2022-07-30T00:45:22.308Z,94976.84
2022-07-30T00:47:51.253Z,94971.00
2022-07-30T00:50:18.870Z,94962.19
2022-07-30T00:52:46.879Z,94964.13
2022-07-30T00:55:16.393Z,94967.69
2022-07-30T00:57:44.232Z,94970.16
2022-07-30T01:00:14.493Z,94966.59
2022-07-30T01:02:42.102Z,94967.66
2022-07-30T01:05:11.752Z,94967.38
2022-07-30T01:07:39.573Z,94961.88
2022-07-30T01:10:08.661Z,94966.00
2022-07-30T01:12:36.400Z,94956.13
2022-07-30T01:15:06.165Z,94959.97
2022-07-30T01:17:34.871Z,94956.41
2022-07-30T01:20:05.669Z,94953.44
2022-07-30T01:22:58.953Z,94958.69
2022-07-30T01:25:48.967Z,94957.09
2022-07-30T01:28:20.197Z,94961.47
2022-07-30T01:30:50.157Z,94952.94
2022-07-30T01:33:18.825Z,94952.94
2022-07-30T01:35:47.701Z,94947.16
2022-07-30T01:38:17.165Z,94950.75
2022-07-30T01:40:46.005Z,94945.56
2022-07-30T01:43:15.259Z,94949.94
2022-07-30T01:45:44.391Z,94948.84
2022-07-30T01:48:13.303Z,94948.00
2022-07-30T01:50:44.410Z,94943.91
2022-07-30T01:53:15.931Z,94954.34
2022-07-30T01:55:44.146Z,94949.38
2022-07-30T01:58:14.821Z,94951.88
2022-07-30T02:00:44.395Z,94949.13
2022-07-30T02:03:12.337Z,94953.50
2022-07-30T02:05:42.290Z,94954.63
2022-07-30T02:08:15.209Z,94955.16
2022-07-30T02:10:45.213Z,94955.16
2022-07-30T02:13:16.295Z,94963.69
2022-07-30T02:15:47.094Z,94953.50
2022-07-30T02:18:18.104Z,94963.94
2022-07-30T02:20:56.309Z,94959.56
2022-07-30T02:23:25.128Z,94959.84
2022-07-30T02:25:53.309Z,94957.09
2022-07-30T02:28:23.093Z,94951.31
2022-07-30T02:30:52.818Z,94956.81
2022-07-30T02:33:23.797Z,94960.09
2022-07-30T02:35:54.064Z,94959.00
2022-07-30T02:38:22.207Z,94952.13
2022-07-30T02:40:51.355Z,94947.69
2022-07-30T02:43:20.778Z,94937.81
2022-07-30T02:45:50.374Z,94954.56
2022-07-30T02:48:31.198Z,94963.38
2022-07-30T02:51:04.346Z,94962.31
2022-07-30T02:53:32.294Z,94964.78
2022-07-30T02:56:01.526Z,94954.59
2022-07-30T02:58:29.811Z,94957.06
2022-07-30T03:00:59.400Z,94955.94
2022-07-30T03:03:29.339Z,94959.00
2022-07-30T03:05:57.345Z,94961.47
2022-07-30T03:08:25.912Z,94955.97
2022-07-30T03:10:55.136Z,94959.00
2022-07-30T03:13:24.265Z,94953.50
2022-07-30T03:15:52.934Z,94952.72
2022-07-30T03:18:22.308Z,94948.03
2022-07-30T03:20:52.649Z,94942.56
2022-07-30T03:23:21.085Z,94943.41
2022-07-30T03:25:52.390Z,94945.28
2022-07-30T03:28:23.342Z,94953.81
2022-07-30T03:30:51.511Z,94946.38
2022-07-30T03:33:19.913Z,94948.84
2022-07-30T03:35:49.307Z,94945.81
2022-07-30T03:38:17.645Z,94951.59
2022-07-30T03:40:45.796Z,94956.81
2022-07-30T03:43:32.541Z,94952.38
2022-07-30T03:46:02.419Z,94952.38
2022-07-30T03:48:30.509Z,94951.56
2022-07-30T03:50:59.767Z,94963.38
2022-07-30T03:53:27.831Z,94958.69
2022-07-30T03:55:56.048Z,94958.13
2022-07-30T03:58:23.773Z,94968.25
2022-07-30T04:00:52.188Z,94970.44
2022-07-30T04:03:25.895Z,94968.78
2022-07-30T04:05:53.668Z,94966.28
2022-07-30T04:08:23.096Z,94974.81
2022-07-30T04:10:51.329Z,94973.97
2022-07-30T04:13:19.156Z,94980.88
2022-07-30T04:16:05.841Z,94979.19
2022-07-30T04:18:41.743Z,94985.81
2022-07-30T04:21:16.071Z,94993.78
2022-07-30T04:24:04.060Z,94997.88
2022-07-30T04:26:35.370Z,95002.84
2022-07-30T04:29:03.858Z,95005.59
2022-07-30T04:31:40.438Z,95011.63
2022-07-30T04:34:09.283Z,95011.34
2022-07-30T04:36:37.064Z,95011.34
2022-07-30T04:39:06.099Z,95023.16
2022-07-30T04:41:48.081Z,95024.28
2022-07-30T04:44:18.009Z,95025.91
2022-07-30T04:46:45.740Z,95030.59
2022-07-30T04:49:14.132Z,95034.72
2022-07-30T04:51:42.226Z,95025.09
2022-07-30T04:54:15.494Z,95024.81
2022-07-30T04:56:52.474Z,95033.88
2022-07-30T04:59:22.952Z,95038.56
2022-07-30T05:01:51.474Z,95036.91
2022-07-30T05:04:19.660Z,95032.25
2022-07-30T05:06:47.621Z,95036.63
2022-07-30T05:09:17.374Z,95031.41
2022-07-30T05:11:51.241Z,95036.09
2022-07-30T05:14:18.855Z,95028.34
2022-07-30T05:16:46.505Z,95040.75
2022-07-30T05:19:14.166Z,95043.50
2022-07-30T05:21:41.724Z,95042.34
2022-07-30T05:24:09.599Z,95048.94
2022-07-30T05:26:38.613Z,95052.78
2022-07-30T05:29:07.034Z,95061.84
2022-07-30T05:31:35.141Z,95057.44
2022-07-30T05:34:03.832Z,95064.03
2022-07-30T05:36:31.762Z,95067.31
2022-07-30T05:38:59.490Z,95055.75
2022-07-30T05:41:31.848Z,95062.59
2022-07-30T05:44:01.859Z,95066.75
2022-07-30T05:46:31.201Z,95068.38
2022-07-30T05:48:59.305Z,95074.16
2022-07-30T05:51:26.938Z,95073.88
2022-07-30T05:53:54.543Z,95081.28
2022-07-30T05:56:22.127Z,95085.09
2022-07-30T05:58:49.715Z,95084.00
2022-07-30T06:01:18.696Z,95077.13
2022-07-30T06:03:46.367Z,95086.16
2022-07-30T06:06:14.025Z,95094.13
2022-07-30T06:08:41.655Z,95093.78
2022-07-30T06:11:09.895Z,95100.97
2022-07-30T06:13:38.197Z,95096.50
2022-07-30T06:16:06.465Z,95103.09
2022-07-30T06:18:35.446Z,95107.53
2022-07-30T06:21:03.044Z,95103.63
2022-07-30T06:23:30.617Z,95110.47
2022-07-30T06:25:58.260Z,95116.78
2022-07-30T06:28:37.721Z,95105.41
2022-07-30T06:31:06.408Z,95106.59
2022-07-30T06:33:35.452Z,95106.44
2022-07-30T06:36:03.095Z,95110.63
2022-07-30T06:38:30.794Z,95112.56
2022-07-30T06:41:02.819Z,95112.91
2022-07-30T06:43:31.984Z,95123.88
2022-07-30T06:45:59.736Z,95114.84
2022-07-30T06:48:27.643Z,95116.06
2022-07-30T06:50:56.636Z,95127.19
2022-07-30T06:53:24.267Z,95124.38
2022-07-30T06:55:53.066Z,95131.22
2022-07-30T06:58:26.191Z,95131.50
2022-07-30T07:00:53.826Z,95131.97
2022-07-30T07:03:21.463Z,95129.38
2022-07-30T07:05:49.159Z,95134.34
2022-07-30T07:08:18.511Z,95132.41
2022-07-30T07:10:46.170Z,95138.59
2022-07-30T07:13:13.806Z,95134.81
2022-07-30T07:15:41.518Z,95138.72
2022-07-30T07:18:09.224Z,95139.69
2022-07-30T07:20:36.900Z,95136.41
2022-07-30T07:23:09.314Z,95142.22
2022-07-30T07:25:41.361Z,95131.16
2022-07-30T07:28:11.038Z,95140.16
2022-07-30T07:30:41.274Z,95133.06
2022-07-30T07:33:09.105Z,95143.22
2022-07-30T07:35:48.468Z,95140.09
2022-07-30T07:38:17.032Z,95135.88
2022-07-30T07:40:46.321Z,95131.97
2022-07-30T07:43:14.639Z,95135.41
2022-07-30T07:45:42.818Z,95145.69
2022-07-30T07:48:10.661Z,95137.25
2022-07-30T07:50:38.399Z,95134.09
2022-07-30T07:53:06.324Z,95138.41
2022-07-30T07:55:33.977Z,95126.94
2022-07-30T07:58:03.292Z,95127.19
2022-07-30T08:00:31.892Z,95128.44
2022-07-30T08:02:59.529Z,95124.28
2022-07-30T08:05:56.898Z,95132.34
2022-07-30T08:08:15.049Z,95137.66
2022-07-30T08:10:42.769Z,95143.69
2022-07-30T08:13:51.497Z,95138.34
2022-07-30T08:16:00.389Z,95134.00
2022-07-30T08:18:28.298Z,95123.69
2022-07-30T08:20:56.036Z,95127.53
2022-07-30T08:23:24.938Z,95128.56
2022-07-30T08:25:52.824Z,95133.31
2022-07-30T08:28:35.775Z,95131.06
2022-07-30T08:31:04.615Z,95134.16
2022-07-30T08:33:32.337Z,95133.31
2022-07-30T08:36:09.049Z,95123.53
2022-07-30T08:38:38.414Z,95129.25
2022-07-30T08:41:06.143Z,95127.13
2022-07-30T08:43:36.581Z,95126.00
2022-07-30T08:46:06.147Z,95127.00
2022-07-30T08:48:34.417Z,95127.63
2022-07-30T08:51:02.205Z,95123.63
2022-07-30T08:53:29.924Z,95126.78
2022-07-30T08:55:58.772Z,95120.94
2022-07-30T08:58:30.188Z,95126.66
2022-07-30T09:00:59.302Z,95127.13
2022-07-30T09:03:26.984Z,95125.00
2022-07-30T09:05:54.650Z,95133.34
2022-07-30T09:08:22.328Z,95126.75
2022-07-30T09:10:53.202Z,95130.53
2022-07-30T09:13:25.534Z,95127.78
2022-07-30T09:15:53.015Z,95126.81
2022-07-30T09:18:33.265Z,95131.91
2022-07-30T09:21:01.940Z,95137.78
2022-07-30T09:23:30.009Z,95132.06
2022-07-30T09:26:00.572Z,95143.81
2022-07-30T09:28:30.193Z,95136.97
2022-07-30T09:30:58.319Z,95141.00
2022-07-30T09:33:37.805Z,95133.66
2022-07-30T09:36:07.014Z,95135.53
2022-07-30T09:38:46.193Z,95133.28
2022-07-30T09:41:36.283Z,95135.47
2022-07-30T09:44:04.492Z,95136.19
2022-07-30T09:46:42.197Z,95127.41
2022-07-30T09:49:16.976Z,95143.84
2022-07-30T09:51:56.643Z,95135.09
2022-07-30T09:54:25.624Z,95137.16
2022-07-30T09:57:25.726Z,95137.78
2022-07-30T09:59:54.928Z,95141.38
2022-07-30T10:02:23.006Z,95142.44
2022-07-30T10:04:55.875Z,95133.31
2022-07-30T10:07:25.555Z,95134.84
2022-07-30T10:09:54.254Z,95128.06
2022-07-30T10:12:23.928Z,95135.91
2022-07-30T10:14:54.450Z,95133.97
2022-07-30T10:17:23.374Z,95131.38
2022-07-30T10:19:52.876Z,95135.41
2022-07-30T10:22:23.692Z,95133.53
2022-07-30T10:24:54.025Z,95136.84
2022-07-30T10:27:21.784Z,95132.34
2022-07-30T10:29:50.656Z,95135.25
2022-07-30T10:32:18.773Z,95137.22
2022-07-30T10:34:59.398Z,95142.47
2022-07-30T10:37:29.395Z,95139.88
2022-07-30T10:40:01.762Z,95138.59
2022-07-30T10:42:42.492Z,95135.19
2022-07-30T10:45:18.362Z,95140.69
2022-07-30T10:47:49.060Z,95141.09
2022-07-30T10:50:19.436Z,95143.81
2022-07-30T10:52:53.255Z,95142.31
2022-07-30T10:55:36.917Z,95145.25
2022-07-30T10:58:08.103Z,95152.13
2022-07-30T11:00:37.484Z,95144.44
2022-07-30T11:03:15.873Z,95143.06
2022-07-30T11:05:45.837Z,95141.28
2022-07-30T11:08:42.792Z,95143.00
2022-07-30T11:12:01.432Z,95146.72
2022-07-30T11:15:07.446Z,95147.25
2022-07-30T11:18:12.959Z,95134.53
2022-07-30T11:20:43.203Z,95143.31
2022-07-30T11:23:40.539Z,95133.06
2022-07-30T11:26:08.491Z,95133.53
2022-07-30T11:28:43.903Z,95125.50
2022-07-30T11:31:54.748Z,95132.69
2022-07-30T11:34:27.768Z,95136.84
2022-07-30T11:37:18.426Z,95137.66
2022-07-30T11:40:11.665Z,95143.56
2022-07-30T11:42:41.638Z,95131.75
2022-07-30T11:45:26.967Z,95135.84
2022-07-30T11:47:56.046Z,95129.41
2022-07-30T11:50:25.795Z,95129.06
2022-07-30T11:52:54.784Z,95127.78
2022-07-30T11:55:30.260Z,95142.53
2022-07-30T11:57:59.082Z,95146.50
2022-07-30T12:00:27.277Z,95140.19
2022-07-30T12:02:54.916Z,95144.44
2022-07-30T12:05:27.464Z,95140.25
2022-07-30T12:07:59.092Z,95134.84
2022-07-30T12:10:28.082Z,95136.56
2022-07-30T12:13:08.074Z,95133.31
2022-07-30T12:15:37.293Z,95134.94
2022-07-30T12:18:25.400Z,95131.44
2022-07-30T12:21:00.090Z,95130.16
2022-07-30T12:23:28.192Z,95126.69
2022-07-30T12:25:58.182Z,95122.47
2022-07-30T12:28:28.435Z,95123.69
2022-07-30T12:30:56.641Z,95121.06
2022-07-30T12:33:24.921Z,95128.28
2022-07-30T12:35:54.153Z,95123.22
2022-07-30T12:38:24.062Z,95114.00
2022-07-30T12:40:57.545Z,95112.53
2022-07-30T12:43:48.298Z,95120.69
2022-07-30T12:46:17.835Z,95114.50
2022-07-30T12:48:57.024Z,95123.47
2022-07-30T12:51:28.882Z,95110.56
2022-07-30T12:53:58.119Z,95116.59
2022-07-30T12:56:28.625Z,95115.94
2022-07-30T12:58:57.964Z,95115.66
2022-07-30T13:01:43.127Z,95118.38
2022-07-30T13:04:14.389Z,95112.91
2022-07-30T13:06:42.499Z,95118.72
2022-07-30T13:09:20.137Z,95111.25
2022-07-30T13:11:51.205Z,95106.25
2022-07-30T13:14:19.196Z,95107.97
2022-07-30T13:16:54.929Z,95108.81
2022-07-30T13:19:22.633Z,95108.44
2022-07-30T13:21:50.301Z,95111.97
2022-07-30T13:24:18.457Z,95104.94
2022-07-30T13:26:46.479Z,95104.31
2022-07-30T13:29:15.479Z,95096.69
2022-07-30T13:31:43.623Z,95091.75
2022-07-30T13:34:11.898Z,95104.84
2022-07-30T13:36:39.618Z,95100.69
2022-07-30T13:39:07.321Z,95109.75
2022-07-30T13:41:36.166Z,95093.53
2022-07-30T13:44:04.587Z,95098.66
2022-07-30T13:46:33.577Z,95099.47
2022-07-30T13:49:01.225Z,95102.63
2022-07-30T13:51:28.928Z,95101.56
2022-07-30T13:53:56.617Z,95097.94
2022-07-30T13:56:24.487Z,95098.13
2022-07-30T13:58:52.093Z,95093.69
2022-07-30T14:01:19.840Z,95088.41
2022-07-30T14:03:50.701Z,95091.34
2022-07-30T14:06:18.785Z,95080.03
2022-07-30T14:08:46.759Z,95080.22
2022-07-30T14:11:14.400Z,95084.94
2022-07-30T14:13:42.191Z,95092.53
2022-07-30T14:16:28.577Z,95090.88
2022-07-30T14:18:58.821Z,95084.50
2022-07-30T14:21:26.613Z,95082.06
2022-07-30T14:23:54.979Z,95070.88
2022-07-30T14:26:22.583Z,95078.28
2022-07-30T14:28:50.197Z,95067.00
2022-07-30T14:31:17.841Z,95075.53
2022-07-30T14:33:45.447Z,95069.06
2022-07-30T14:36:14.728Z,95066.72
2022-07-30T14:38:42.405Z,95065.47
2022-07-30T14:41:10.093Z,95068.13
2022-07-30T14:43:37.778Z,95073.56
2022-07-30T14:46:05.393Z,95070.66
2022-07-30T14:48:33.041Z,95066.72
2022-07-30T14:51:14.753Z,95066.38
2022-07-30T14:53:50.646Z,95071.13
2022-07-30T14:56:19.315Z,95071.66
2022-07-30T14:58:46.934Z,95060.50
2022-07-30T15:01:16.255Z,95055.97
2022-07-30T15:03:44.665Z,95072.78
2022-07-30T15:06:14.999Z,95060.56
2022-07-30T15:08:42.682Z,95063.88
2022-07-30T15:11:11.655Z,95074.31
2022-07-30T15:13:41.748Z,95064.25
2022-07-30T15:16:18.058Z,95062.28
2022-07-30T15:18:45.887Z,95064.44
2022-07-30T15:21:13.491Z,95065.56
2022-07-30T15:23:41.101Z,95063.75
2022-07-30T15:26:08.708Z,95060.72
2022-07-30T15:28:38.650Z,95061.09
2022-07-30T15:31:06.289Z,95068.78
2022-07-30T15:33:37.134Z,95067.84
2022-07-30T15:36:05.208Z,95072.91
2022-07-30T15:38:33.451Z,95071.31
2022-07-30T15:41:01.692Z,95064.53
2022-07-30T15:43:29.359Z,95067.78
2022-07-30T15:45:58.517Z,95063.28
2022-07-30T15:48:27.710Z,95057.75
2022-07-30T15:51:01.714Z,95065.34
2022-07-30T15:53:30.264Z,95064.38
2022-07-30T15:55:58.237Z,95072.97
2022-07-30T15:58:26.047Z,95068.53
2022-07-30T16:00:53.824Z,95069.97
2022-07-30T16:03:22.952Z,95064.94
2022-07-30T16:05:52.469Z,95065.63
2022-07-30T16:08:20.597Z,95062.53
2022-07-30T16:10:48.496Z,95064.47
2022-07-30T16:13:16.386Z,95062.44
2022-07-30T16:15:44.093Z,95064.91
2022-07-30T16:18:11.774Z,95074.53
2022-07-30T16:20:40.789Z,95066.59
2022-07-30T16:23:13.920Z,95065.22
2022-07-30T16:25:43.614Z,95071.31
2022-07-30T16:28:11.295Z,95069.63
2022-07-30T16:30:50.507Z,95075.06
2022-07-30T16:33:19.605Z,95069.16
2022-07-30T16:35:50.928Z,95073.59
2022-07-30T16:38:19.099Z,95080.44
2022-07-30T16:40:46.918Z,95074.28
2022-07-30T16:43:15.538Z,95065.09
2022-07-30T16:45:44.639Z,95080.88
2022-07-30T16:48:13.736Z,95074.06
2022-07-30T16:50:41.409Z,95074.22
2022-07-30T16:53:13.821Z,95077.28
2022-07-30T16:55:42.250Z,95072.03
2022-07-30T16:58:09.911Z,95074.22
2022-07-30T17:00:37.897Z,95068.53
2022-07-30T17:03:05.780Z,95070.88
2022-07-30T17:05:33.516Z,95079.59
2022-07-30T17:08:01.171Z,95081.94
2022-07-30T17:10:30.229Z,95087.44
2022-07-30T17:12:57.854Z,95087.81
2022-07-30T17:15:31.957Z,95086.59
2022-07-30T17:17:59.901Z,95094.13
2022-07-30T17:20:29.180Z,95093.34
2022-07-30T17:22:56.821Z,95092.22
2022-07-30T17:25:27.252Z,95095.69
2022-07-30T17:27:56.746Z,95099.63
2022-07-30T17:30:24.639Z,95103.72
2022-07-30T17:33:06.253Z,95097.06
2022-07-30T17:35:34.198Z,95102.31
2022-07-30T17:38:02.047Z,95102.63
2022-07-30T17:40:31.561Z,95105.56
2022-07-30T17:43:04.522Z,95101.94
2022-07-30T17:45:32.892Z,95096.56
2022-07-30T17:48:01.500Z,95099.84
2022-07-30T17:50:29.438Z,95101.63
2022-07-30T17:52:57.120Z,95097.72
2022-07-30T17:55:25.180Z,95091.16
2022-07-30T17:57:52.830Z,95090.34
2022-07-30T18:00:21.904Z,95090.84
2022-07-30T18:02:49.809Z,95096.56
2022-07-30T18:05:17.541Z,95095.06
2022-07-30T18:07:45.534Z,95097.34
2022-07-30T18:10:13.428Z,95093.25
2022-07-30T18:12:49.051Z,95089.50
2022-07-30T18:15:17.618Z,95097.16
2022-07-30T18:17:46.714Z,95098.31
2022-07-30T18:20:15.081Z,95095.16
2022-07-30T18:22:43.141Z,95091.38
2022-07-30T18:25:18.776Z,95096.91
2022-07-30T18:27:46.926Z,95095.59
2022-07-30T18:30:14.829Z,95099.31
2022-07-30T18:32:42.522Z,95092.28
2022-07-30T18:35:14.666Z,95094.19
2022-07-30T18:37:43.669Z,95101.03
2022-07-30T18:40:12.706Z,95099.41
2022-07-30T18:42:40.416Z,95097.44
2022-07-30T18:45:09.088Z,95105.59
2022-07-30T18:47:36.788Z,95100.84
2022-07-30T18:50:05.032Z,95106.84
2022-07-30T18:52:34.419Z,95102.97
2022-07-30T18:55:02.471Z,95115.31
2022-07-30T18:57:30.111Z,95120.19
2022-07-30T18:59:57.788Z,95122.97
2022-07-30T19:02:26.053Z,95120.03
2022-07-30T19:04:53.859Z,95133.03
2022-07-30T19:07:21.463Z,95127.09
2022-07-30T19:09:50.618Z,95127.44
2022-07-30T19:12:18.233Z,95126.94
2022-07-30T19:14:45.891Z,95129.22
2022-07-30T19:17:15.276Z,95138.47
2022-07-30T19:19:43.217Z,95140.22
2022-07-30T19:22:10.895Z,95134.31
2022-07-30T19:24:38.681Z,95147.50
2022-07-30T19:27:12.293Z,95145.16
2022-07-30T19:29:42.055Z,95148.19
2022-07-30T19:32:09.852Z,95148.63
2022-07-30T19:34:37.560Z,95155.59
2022-07-30T19:37:05.236Z,95154.91
2022-07-30T19:39:34.975Z,95163.34
2022-07-30T19:42:03.918Z,95167.84
2022-07-30T19:44:35.861Z,95170.72
2022-07-30T19:47:06.722Z,95178.09
2022-07-30T19:49:40.349Z,95177.50
2022-07-30T19:52:23.168Z,95169.31
2022-07-30T19:54:51.706Z,95172.50
2022-07-30T19:57:20.668Z,95170.56
2022-07-30T19:59:59.721Z,95176.00
2022-07-30T20:02:35.542Z,95182.13
2022-07-30T20:05:03.927Z,95191.56
2022-07-30T20:07:33.810Z,95182.09
2022-07-30T20:10:03.246Z,95189.47
2022-07-30T20:12:30.867Z,95187.28
2022-07-30T20:14:59.859Z,95187.59
2022-07-30T20:17:27.575Z,95180.94
2022-07-30T20:19:59.379Z,95179.50
2022-07-30T20:22:27.369Z,95165.75
2022-07-30T20:24:55.565Z,95173.59
2022-07-30T20:27:36.177Z,95176.16
2022-07-30T20:30:08.600Z,95185.97
2022-07-30T20:32:36.461Z,95187.91
2022-07-30T20:35:04.249Z,95191.94
2022-07-30T20:37:32.908Z,95192.53
2022-07-30T20:40:21.307Z,95195.50
2022-07-30T20:42:50.885Z,95192.25
2022-07-30T20:45:24.239Z,95188.44
2022-07-30T20:47:56.039Z,95194.13
2022-07-30T20:50:30.905Z,95195.34
2022-07-30T20:52:59.467Z,95202.28
2022-07-30T20:55:27.271Z,95203.03
2022-07-30T20:57:57.229Z,95199.84
2022-07-30T21:00:31.892Z,95210.81
2022-07-30T21:03:03.302Z,95210.22
2022-07-30T21:05:32.712Z,95205.28
2022-07-30T21:10:47.895Z,95207.53
2022-07-30T21:13:15.769Z,95208.19
2022-07-30T21:16:01.596Z,95212.94
2022-07-30T21:18:31.004Z,95214.38
2022-07-30T21:20:58.675Z,95211.47
2022-07-30T21:23:28.465Z,95217.00
2022-07-30T21:26:00.507Z,95216.69
2022-07-30T21:28:35.109Z,95218.97
2022-07-30T21:31:07.192Z,95213.81
2022-07-30T21:33:35.908Z,95226.53
2022-07-30T21:36:03.566Z,95217.19
2022-07-30T21:38:31.873Z,95210.56
2022-07-30T21:41:00.247Z,95210.03
2022-07-30T21:43:30.462Z,95216.38
2022-07-30T21:46:03.753Z,95216.16
2022-07-30T21:48:35.516Z,95223.19
2022-07-30T21:51:03.244Z,95224.91
2022-07-30T21:53:46.137Z,95224.91
2022-07-30T21:56:14.769Z,95223.34
2022-07-30T21:58:43.598Z,95226.69
2022-07-30T22:01:17.836Z,95230.00
2022-07-30T22:04:04.763Z,95221.94
2022-07-30T22:06:38.019Z,95221.66
2022-07-30T22:09:19.170Z,95231.03
2022-07-30T22:11:54.484Z,95227.16
2022-07-30T22:14:25.511Z,95224.41
2022-07-30T22:16:53.653Z,95227.81
2022-07-30T22:19:23.874Z,95227.63
2022-07-30T22:21:53.646Z,95235.16
2022-07-30T22:24:29.396Z,95232.97
2022-07-30T22:27:01.253Z,95234.09
2022-07-30T22:29:34.106Z,95231.41
2022-07-30T22:32:03.099Z,95227.00
2022-07-30T22:34:32.629Z,95215.19
2022-07-30T22:37:00.199Z,95217.66
2022-07-30T22:39:32.224Z,95208.50
2022-07-30T22:42:16.172Z,95216.53
2022-07-30T22:44:46.288Z,95217.41
2022-07-30T22:47:20.909Z,95213.28
2022-07-30T22:49:52.947Z,95216.66
2022-07-30T22:52:25.298Z,95205.41
2022-07-30T22:54:54.288Z,95215.38
2022-07-30T22:57:23.510Z,95221.19
2022-07-30T22:59:58.251Z,95215.66
2022-07-30T23:02:28.023Z,95222.81
2022-07-30T23:04:57.005Z,95216.47
2022-07-30T23:07:24.762Z,95228.03
2022-07-30T23:10:17.658Z,95218.38
2022-07-30T23:12:26.823Z,95206.47
2022-07-30T23:12:48.253Z,95220.84
2022-07-30T23:15:16.107Z,95219.13
2022-07-30T23:17:44.398Z,95220.28
2022-07-30T23:20:15.696Z,95214.75
2022-07-30T23:22:43.448Z,95219.13
2022-07-30T23:25:12.259Z,95220.28
2022-07-30T23:27:40.577Z,95207.59
2022-07-30T23:30:09.497Z,95215.34
2022-07-30T23:32:38.001Z,95209.56
2022-07-30T23:35:06.675Z,95204.88
2022-07-30T23:37:49.067Z,95204.41
2022-07-30T23:40:17.808Z,95209.34
2022-07-30T23:42:45.414Z,95209.97
2022-07-30T23:45:13.094Z,95201.69
2022-07-30T23:48:01.088Z,95206.59
2022-07-30T23:50:28.894Z,95205.75
2022-07-30T23:52:57.888Z,95205.44
2022-07-30T23:55:27.218Z,95201.88
2022-07-30T23:57:55.012Z,95207.97
